sensor_id;sensor_type;location;lat;lon;timestamp;temperature;humidity
19870;DHT22;10097;50.862;4.696;2022-10-16T00:00:19;14.80;99.90
19870;DHT22;10097;50.862;4.696;2022-10-16T00:02:44;14.80;99.90
19870;DHT22;10097;50.862;4.696;2022-10-16T00:05:10;14.70;99.90
19870;DHT22;10097;50.862;4.696;2022-10-16T00:07:35;14.70;99.90
19870;DHT22;10097;50.862;4.696;2022-10-16T00:10:01;14.70;99.90
19870;DHT22;10097;50.862;4.696;2022-10-16T00:12:27;14.70;99.90
19870;DHT22;10097;50.862;4.696;2022-10-16T00:14:52;14.80;99.90
19870;DHT22;10097;50.862;4.696;2022-10-16T00:17:18;14.80;99.90
19870;DHT22;10097;50.862;4.696;2022-10-16T00:19:44;14.80;99.90
19870;DHT22;10097;50.862;4.696;2022-10-16T00:22:09;14.80;99.90
19870;DHT22;10097;50.862;4.696;2022-10-16T00:24:36;14.70;99.90
19870;DHT22;10097;50.862;4.696;2022-10-16T00:27:02;14.80;99.90
19870;DHT22;10097;50.862;4.696;2022-10-16T00:29:27;14.80;99.90
19870;DHT22;10097;50.862;4.696;2022-10-16T00:31:53;14.80;99.90
19870;DHT22;10097;50.862;4.696;2022-10-16T00:34:19;14.80;99.90
19870;DHT22;10097;50.862;4.696;2022-10-16T00:36:44;14.70;99.90
19870;DHT22;10097;50.862;4.696;2022-10-16T00:39:10;14.70;99.90
19870;DHT22;10097;50.862;4.696;2022-10-16T00:41:35;14.60;99.90
19870;DHT22;10097;50.862;4.696;2022-10-16T00:44:04;14.60;99.90
19870;DHT22;10097;50.862;4.696;2022-10-16T00:46:50;14.60;99.90
19870;DHT22;10097;50.862;4.696;2022-10-16T00:49:18;14.60;99.90
19870;DHT22;10097;50.862;4.696;2022-10-16T00:51:51;14.60;99.90
19870;DHT22;10097;50.862;4.696;2022-10-16T00:54:28;14.50;99.90
19870;DHT22;10097;50.862;4.696;2022-10-16T00:56:55;14.50;99.90
19870;DHT22;10097;50.862;4.696;2022-10-16T00:59:33;14.50;99.90
19870;DHT22;10097;50.862;4.696;2022-10-16T01:02:01;14.50;99.90
19870;DHT22;10097;50.862;4.696;2022-10-16T01:04:32;14.40;99.90
19870;DHT22;10097;50.862;4.696;2022-10-16T01:12:34;14.30;99.90
19870;DHT22;10097;50.862;4.696;2022-10-16T01:15:14;14.30;99.90
19870;DHT22;10097;50.862;4.696;2022-10-16T01:18:21;14.30;99.90
19870;DHT22;10097;50.862;4.696;2022-10-16T01:21:08;14.30;99.90
19870;DHT22;10097;50.862;4.696;2022-10-16T01:28:52;14.30;99.90
19870;DHT22;10097;50.862;4.696;2022-10-16T01:31:24;14.30;99.90
19870;DHT22;10097;50.862;4.696;2022-10-16T01:34:02;14.30;99.90
19870;DHT22;10097;50.862;4.696;2022-10-16T01:36:47;14.30;99.90
19870;DHT22;10097;50.862;4.696;2022-10-16T01:39:14;14.30;99.90
19870;DHT22;10097;50.862;4.696;2022-10-16T01:41:48;14.20;99.90
19870;DHT22;10097;50.862;4.696;2022-10-16T01:44:28;14.20;99.90
19870;DHT22;10097;50.862;4.696;2022-10-16T01:46:55;14.20;99.90
19870;DHT22;10097;50.862;4.696;2022-10-16T01:49:23;14.30;99.90
19870;DHT22;10097;50.862;4.696;2022-10-16T01:51:53;14.20;99.90
19870;DHT22;10097;50.862;4.696;2022-10-16T01:54:20;14.20;99.90
19870;DHT22;10097;50.862;4.696;2022-10-16T01:56:50;14.30;99.90
19870;DHT22;10097;50.862;4.696;2022-10-16T01:59:18;14.20;99.90
19870;DHT22;10097;50.862;4.696;2022-10-16T02:01:50;14.20;99.90
19870;DHT22;10097;50.862;4.696;2022-10-16T02:04:38;14.20;99.90
19870;DHT22;10097;50.862;4.696;2022-10-16T02:07:05;14.20;99.90
19870;DHT22;10097;50.862;4.696;2022-10-16T02:09:33;14.20;99.90
19870;DHT22;10097;50.862;4.696;2022-10-16T02:12:01;14.30;99.90
19870;DHT22;10097;50.862;4.696;2022-10-16T02:14:29;14.30;99.90
19870;DHT22;10097;50.862;4.696;2022-10-16T02:16:55;14.30;99.90
19870;DHT22;10097;50.862;4.696;2022-10-16T02:19:22;14.30;99.90
19870;DHT22;10097;50.862;4.696;2022-10-16T02:21:58;14.30;99.90
19870;DHT22;10097;50.862;4.696;2022-10-16T02:24:54;14.30;99.90
19870;DHT22;10097;50.862;4.696;2022-10-16T02:30:25;14.40;99.90
19870;DHT22;10097;50.862;4.696;2022-10-16T02:32:53;14.40;99.90
19870;DHT22;10097;50.862;4.696;2022-10-16T02:35:21;14.40;99.90
19870;DHT22;10097;50.862;4.696;2022-10-16T02:37:49;14.40;99.90
19870;DHT22;10097;50.862;4.696;2022-10-16T02:40:16;14.40;99.90
19870;DHT22;10097;50.862;4.696;2022-10-16T02:42:42;14.50;99.90
19870;DHT22;10097;50.862;4.696;2022-10-16T02:45:10;14.50;99.90
19870;DHT22;10097;50.862;4.696;2022-10-16T02:47:36;14.40;99.90
19870;DHT22;10097;50.862;4.696;2022-10-16T02:50:03;14.40;99.90
19870;DHT22;10097;50.862;4.696;2022-10-16T02:52:29;14.40;99.90
19870;DHT22;10097;50.862;4.696;2022-10-16T02:54:54;14.30;99.90
19870;DHT22;10097;50.862;4.696;2022-10-16T02:57:20;14.30;99.90
19870;DHT22;10097;50.862;4.696;2022-10-16T02:59:46;14.30;99.90
19870;DHT22;10097;50.862;4.696;2022-10-16T03:02:11;14.30;99.90
19870;DHT22;10097;50.862;4.696;2022-10-16T03:04:37;14.30;99.90
19870;DHT22;10097;50.862;4.696;2022-10-16T03:07:03;14.30;99.90
19870;DHT22;10097;50.862;4.696;2022-10-16T03:09:29;14.30;99.90
19870;DHT22;10097;50.862;4.696;2022-10-16T03:11:55;14.30;99.90
19870;DHT22;10097;50.862;4.696;2022-10-16T03:14:21;14.40;99.90
19870;DHT22;10097;50.862;4.696;2022-10-16T03:16:46;14.30;99.90
19870;DHT22;10097;50.862;4.696;2022-10-16T03:19:12;14.30;99.90
19870;DHT22;10097;50.862;4.696;2022-10-16T03:21:37;14.30;99.90
19870;DHT22;10097;50.862;4.696;2022-10-16T03:24:03;14.30;99.90
19870;DHT22;10097;50.862;4.696;2022-10-16T03:26:29;14.30;99.90
19870;DHT22;10097;50.862;4.696;2022-10-16T03:28:55;14.20;99.90
19870;DHT22;10097;50.862;4.696;2022-10-16T03:31:20;14.30;99.90
19870;DHT22;10097;50.862;4.696;2022-10-16T03:33:46;14.30;99.90
19870;DHT22;10097;50.862;4.696;2022-10-16T03:36:11;14.30;99.90
19870;DHT22;10097;50.862;4.696;2022-10-16T03:38:37;14.30;99.90
19870;DHT22;10097;50.862;4.696;2022-10-16T03:41:03;14.30;99.90
19870;DHT22;10097;50.862;4.696;2022-10-16T03:43:29;14.30;99.90
19870;DHT22;10097;50.862;4.696;2022-10-16T03:45:55;14.20;99.90
19870;DHT22;10097;50.862;4.696;2022-10-16T03:48:20;14.20;99.90
19870;DHT22;10097;50.862;4.696;2022-10-16T03:50:46;14.30;99.90
19870;DHT22;10097;50.862;4.696;2022-10-16T03:53:14;14.30;99.90
19870;DHT22;10097;50.862;4.696;2022-10-16T03:55:41;14.30;99.90
19870;DHT22;10097;50.862;4.696;2022-10-16T03:58:07;14.40;99.90
19870;DHT22;10097;50.862;4.696;2022-10-16T04:00:33;14.30;99.90
19870;DHT22;10097;50.862;4.696;2022-10-16T04:03:00;14.40;99.90
19870;DHT22;10097;50.862;4.696;2022-10-16T04:05:25;14.40;99.90
19870;DHT22;10097;50.862;4.696;2022-10-16T04:07:51;14.40;99.90
19870;DHT22;10097;50.862;4.696;2022-10-16T04:10:17;14.40;99.90
19870;DHT22;10097;50.862;4.696;2022-10-16T04:12:43;14.40;99.90
19870;DHT22;10097;50.862;4.696;2022-10-16T04:15:08;14.50;99.90
19870;DHT22;10097;50.862;4.696;2022-10-16T04:17:35;14.40;99.90
19870;DHT22;10097;50.862;4.696;2022-10-16T04:20:00;14.40;99.90
19870;DHT22;10097;50.862;4.696;2022-10-16T04:22:26;14.40;99.90
19870;DHT22;10097;50.862;4.696;2022-10-16T04:24:52;14.50;99.90
19870;DHT22;10097;50.862;4.696;2022-10-16T04:27:17;14.40;99.90
19870;DHT22;10097;50.862;4.696;2022-10-16T04:29:43;14.40;99.90
19870;DHT22;10097;50.862;4.696;2022-10-16T04:32:09;14.40;99.90
19870;DHT22;10097;50.862;4.696;2022-10-16T04:34:35;14.40;99.90
19870;DHT22;10097;50.862;4.696;2022-10-16T04:37:00;14.40;99.90
19870;DHT22;10097;50.862;4.696;2022-10-16T04:39:26;14.50;99.90
19870;DHT22;10097;50.862;4.696;2022-10-16T04:41:51;14.50;99.90
19870;DHT22;10097;50.862;4.696;2022-10-16T04:44:17;14.40;99.90
19870;DHT22;10097;50.862;4.696;2022-10-16T04:46:43;14.40;99.90
19870;DHT22;10097;50.862;4.696;2022-10-16T04:49:09;14.30;99.90
19870;DHT22;10097;50.862;4.696;2022-10-16T04:51:35;14.30;99.90
19870;DHT22;10097;50.862;4.696;2022-10-16T04:54:01;14.30;99.90
19870;DHT22;10097;50.862;4.696;2022-10-16T04:56:27;14.30;99.90
19870;DHT22;10097;50.862;4.696;2022-10-16T04:58:52;14.20;99.90
19870;DHT22;10097;50.862;4.696;2022-10-16T05:01:18;14.20;99.90
19870;DHT22;10097;50.862;4.696;2022-10-16T05:03:44;14.20;99.90
19870;DHT22;10097;50.862;4.696;2022-10-16T05:06:09;14.30;99.90
19870;DHT22;10097;50.862;4.696;2022-10-16T05:08:35;14.20;99.90
19870;DHT22;10097;50.862;4.696;2022-10-16T05:11:00;14.20;99.90
19870;DHT22;10097;50.862;4.696;2022-10-16T05:13:27;14.10;99.90
19870;DHT22;10097;50.862;4.696;2022-10-16T05:15:52;14.00;99.90
19870;DHT22;10097;50.862;4.696;2022-10-16T05:18:18;14.10;99.90
19870;DHT22;10097;50.862;4.696;2022-10-16T05:20:44;14.00;99.90
19870;DHT22;10097;50.862;4.696;2022-10-16T05:23:09;14.00;99.90
19870;DHT22;10097;50.862;4.696;2022-10-16T05:25:36;14.00;99.90
19870;DHT22;10097;50.862;4.696;2022-10-16T05:28:02;14.00;99.90
19870;DHT22;10097;50.862;4.696;2022-10-16T05:30:28;14.00;99.90
19870;DHT22;10097;50.862;4.696;2022-10-16T05:32:53;14.00;99.90
19870;DHT22;10097;50.862;4.696;2022-10-16T05:35:19;14.00;99.90
19870;DHT22;10097;50.862;4.696;2022-10-16T05:37:46;13.90;99.90
19870;DHT22;10097;50.862;4.696;2022-10-16T05:40:12;14.00;99.90
19870;DHT22;10097;50.862;4.696;2022-10-16T05:42:38;13.90;99.90
19870;DHT22;10097;50.862;4.696;2022-10-16T05:45:05;13.90;99.90
19870;DHT22;10097;50.862;4.696;2022-10-16T05:47:31;13.80;99.90
19870;DHT22;10097;50.862;4.696;2022-10-16T05:49:57;13.80;99.90
19870;DHT22;10097;50.862;4.696;2022-10-16T05:52:23;13.90;99.90
19870;DHT22;10097;50.862;4.696;2022-10-16T05:54:48;13.80;99.90
19870;DHT22;10097;50.862;4.696;2022-10-16T05:57:15;13.80;99.90
19870;DHT22;10097;50.862;4.696;2022-10-16T05:59:40;13.70;99.90
19870;DHT22;10097;50.862;4.696;2022-10-16T06:02:08;13.70;99.90
19870;DHT22;10097;50.862;4.696;2022-10-16T06:04:34;13.70;99.90
19870;DHT22;10097;50.862;4.696;2022-10-16T06:07:00;13.70;99.90
19870;DHT22;10097;50.862;4.696;2022-10-16T06:09:28;13.70;99.90
19870;DHT22;10097;50.862;4.696;2022-10-16T06:11:53;13.70;99.90
19870;DHT22;10097;50.862;4.696;2022-10-16T06:14:19;13.60;99.90
19870;DHT22;10097;50.862;4.696;2022-10-16T06:16:45;13.70;99.90
19870;DHT22;10097;50.862;4.696;2022-10-16T06:19:10;13.60;99.90
19870;DHT22;10097;50.862;4.696;2022-10-16T06:21:36;13.60;99.90
19870;DHT22;10097;50.862;4.696;2022-10-16T06:24:02;13.60;99.90
19870;DHT22;10097;50.862;4.696;2022-10-16T06:26:30;13.60;99.90
19870;DHT22;10097;50.862;4.696;2022-10-16T06:28:57;13.60;99.90
19870;DHT22;10097;50.862;4.696;2022-10-16T06:31:24;13.50;99.90
19870;DHT22;10097;50.862;4.696;2022-10-16T06:33:53;13.50;99.90
19870;DHT22;10097;50.862;4.696;2022-10-16T06:36:20;13.60;99.90
19870;DHT22;10097;50.862;4.696;2022-10-16T06:38:46;13.70;99.90
19870;DHT22;10097;50.862;4.696;2022-10-16T06:41:20;13.70;99.90
19870;DHT22;10097;50.862;4.696;2022-10-16T06:43:46;13.70;99.90
19870;DHT22;10097;50.862;4.696;2022-10-16T06:46:14;13.60;99.90
19870;DHT22;10097;50.862;4.696;2022-10-16T06:48:41;13.70;99.90
19870;DHT22;10097;50.862;4.696;2022-10-16T06:51:10;13.70;99.90
19870;DHT22;10097;50.862;4.696;2022-10-16T06:53:38;13.70;99.90
19870;DHT22;10097;50.862;4.696;2022-10-16T06:56:15;13.80;99.90
19870;DHT22;10097;50.862;4.696;2022-10-16T06:58:42;13.90;99.90
19870;DHT22;10097;50.862;4.696;2022-10-16T07:01:09;13.90;99.90
19870;DHT22;10097;50.862;4.696;2022-10-16T07:03:40;13.90;99.90
19870;DHT22;10097;50.862;4.696;2022-10-16T07:06:09;13.90;99.90
19870;DHT22;10097;50.862;4.696;2022-10-16T07:08:37;14.10;99.90
19870;DHT22;10097;50.862;4.696;2022-10-16T07:11:12;14.10;99.90
19870;DHT22;10097;50.862;4.696;2022-10-16T07:13:40;14.30;99.90
19870;DHT22;10097;50.862;4.696;2022-10-16T07:16:15;14.40;99.90
19870;DHT22;10097;50.862;4.696;2022-10-16T07:18:42;14.60;99.90
19870;DHT22;10097;50.862;4.696;2022-10-16T07:23:40;14.70;99.90
19870;DHT22;10097;50.862;4.696;2022-10-16T07:26:07;14.90;99.90
19870;DHT22;10097;50.862;4.696;2022-10-16T07:28:33;14.80;99.90
19870;DHT22;10097;50.862;4.696;2022-10-16T07:31:03;14.90;99.90
19870;DHT22;10097;50.862;4.696;2022-10-16T07:33:31;14.80;99.90
19870;DHT22;10097;50.862;4.696;2022-10-16T07:35:56;14.80;99.90
19870;DHT22;10097;50.862;4.696;2022-10-16T07:38:26;14.80;99.90
19870;DHT22;10097;50.862;4.696;2022-10-16T07:41:00;14.80;99.90
19870;DHT22;10097;50.862;4.696;2022-10-16T07:43:26;14.80;99.90
19870;DHT22;10097;50.862;4.696;2022-10-16T07:45:52;14.90;99.90
19870;DHT22;10097;50.862;4.696;2022-10-16T07:48:19;15.00;99.90
19870;DHT22;10097;50.862;4.696;2022-10-16T07:50:45;15.00;99.90
19870;DHT22;10097;50.862;4.696;2022-10-16T07:53:15;15.00;99.90
19870;DHT22;10097;50.862;4.696;2022-10-16T07:55:41;15.00;99.90
19870;DHT22;10097;50.862;4.696;2022-10-16T07:58:07;15.00;99.90
19870;DHT22;10097;50.862;4.696;2022-10-16T08:00:33;15.10;99.90
19870;DHT22;10097;50.862;4.696;2022-10-16T08:03:00;15.30;99.90
19870;DHT22;10097;50.862;4.696;2022-10-16T08:05:30;15.30;99.90
19870;DHT22;10097;50.862;4.696;2022-10-16T08:07:56;15.30;99.90
19870;DHT22;10097;50.862;4.696;2022-10-16T08:10:24;15.30;99.90
19870;DHT22;10097;50.862;4.696;2022-10-16T08:12:50;15.40;99.90
19870;DHT22;10097;50.862;4.696;2022-10-16T08:15:16;15.40;99.90
19870;DHT22;10097;50.862;4.696;2022-10-16T08:17:42;15.40;99.90
19870;DHT22;10097;50.862;4.696;2022-10-16T08:20:08;15.40;99.90
19870;DHT22;10097;50.862;4.696;2022-10-16T08:22:34;15.50;99.90
19870;DHT22;10097;50.862;4.696;2022-10-16T08:25:00;15.50;99.90
19870;DHT22;10097;50.862;4.696;2022-10-16T08:27:31;15.60;99.90
19870;DHT22;10097;50.862;4.696;2022-10-16T08:29:57;15.70;99.90
19870;DHT22;10097;50.862;4.696;2022-10-16T08:32:23;15.70;99.90
19870;DHT22;10097;50.862;4.696;2022-10-16T08:34:48;15.80;99.90
19870;DHT22;10097;50.862;4.696;2022-10-16T08:37:14;15.90;99.90
19870;DHT22;10097;50.862;4.696;2022-10-16T08:39:40;16.00;99.90
19870;DHT22;10097;50.862;4.696;2022-10-16T08:45:51;16.10;99.90
19870;DHT22;10097;50.862;4.696;2022-10-16T08:50:31;16.20;99.90
19870;DHT22;10097;50.862;4.696;2022-10-16T08:52:58;16.20;99.90
19870;DHT22;10097;50.862;4.696;2022-10-16T08:55:43;16.30;99.90
19870;DHT22;10097;50.862;4.696;2022-10-16T08:58:22;16.40;99.90
19870;DHT22;10097;50.862;4.696;2022-10-16T09:00:51;16.50;99.90
19870;DHT22;10097;50.862;4.696;2022-10-16T09:06:32;16.60;99.90
19870;DHT22;10097;50.862;4.696;2022-10-16T09:14:33;16.70;99.90
19870;DHT22;10097;50.862;4.696;2022-10-16T09:19:51;16.80;99.90
19870;DHT22;10097;50.862;4.696;2022-10-16T09:22:21;16.90;99.90
19870;DHT22;10097;50.862;4.696;2022-10-16T09:24:48;17.00;99.90
19870;DHT22;10097;50.862;4.696;2022-10-16T09:27:14;17.10;99.90
19870;DHT22;10097;50.862;4.696;2022-10-16T09:29:40;17.10;99.90
19870;DHT22;10097;50.862;4.696;2022-10-16T09:32:16;17.20;99.90
19870;DHT22;10097;50.862;4.696;2022-10-16T09:34:47;17.20;99.90
19870;DHT22;10097;50.862;4.696;2022-10-16T09:37:17;17.30;99.90
19870;DHT22;10097;50.862;4.696;2022-10-16T09:42:19;17.40;99.90
19870;DHT22;10097;50.862;4.696;2022-10-16T09:44:53;17.60;99.90
19870;DHT22;10097;50.862;4.696;2022-10-16T09:52:20;17.50;99.90
19870;DHT22;10097;50.862;4.696;2022-10-16T09:57:19;17.80;99.90
19870;DHT22;10097;50.862;4.696;2022-10-16T09:59:54;17.90;99.90
19870;DHT22;10097;50.862;4.696;2022-10-16T10:02:44;17.90;99.90
19870;DHT22;10097;50.862;4.696;2022-10-16T10:05:35;17.90;99.90
19870;DHT22;10097;50.862;4.696;2022-10-16T10:08:02;18.00;99.90
19870;DHT22;10097;50.862;4.696;2022-10-16T10:10:41;18.10;99.90
19870;DHT22;10097;50.862;4.696;2022-10-16T10:13:22;18.00;99.90
19870;DHT22;10097;50.862;4.696;2022-10-16T10:15:48;17.90;99.90
19870;DHT22;10097;50.862;4.696;2022-10-16T10:18:19;17.90;99.90
19870;DHT22;10097;50.862;4.696;2022-10-16T10:20:58;18.10;99.90
19870;DHT22;10097;50.862;4.696;2022-10-16T10:23:25;18.30;99.90
19870;DHT22;10097;50.862;4.696;2022-10-16T10:31:26;18.60;99.90
19870;DHT22;10097;50.862;4.696;2022-10-16T10:36:34;18.70;99.90
19870;DHT22;10097;50.862;4.696;2022-10-16T10:39:25;18.70;99.90
19870;DHT22;10097;50.862;4.696;2022-10-16T10:41:59;18.70;99.90
19870;DHT22;10097;50.862;4.696;2022-10-16T10:47:07;18.80;99.90
19870;DHT22;10097;50.862;4.696;2022-10-16T10:55:23;18.90;99.90
19870;DHT22;10097;50.862;4.696;2022-10-16T10:58:23;18.90;99.90
19870;DHT22;10097;50.862;4.696;2022-10-16T11:01:26;19.10;99.90
19870;DHT22;10097;50.862;4.696;2022-10-16T11:06:43;19.30;99.90
19870;DHT22;10097;50.862;4.696;2022-10-16T11:09:17;19.40;99.90
19870;DHT22;10097;50.862;4.696;2022-10-16T11:11:54;19.40;99.90
19870;DHT22;10097;50.862;4.696;2022-10-16T11:14:26;19.40;99.90
19870;DHT22;10097;50.862;4.696;2022-10-16T11:20:02;19.20;99.90
19870;DHT22;10097;50.862;4.696;2022-10-16T11:22:47;19.30;99.90
19870;DHT22;10097;50.862;4.696;2022-10-16T11:25:26;19.20;99.90
19870;DHT22;10097;50.862;4.696;2022-10-16T11:28:13;19.30;99.90
19870;DHT22;10097;50.862;4.696;2022-10-16T11:31:05;19.40;99.90
19870;DHT22;10097;50.862;4.696;2022-10-16T11:33:40;19.60;99.90
19870;DHT22;10097;50.862;4.696;2022-10-16T11:36:32;19.90;99.90
19870;DHT22;10097;50.862;4.696;2022-10-16T11:47:34;20.50;99.90
19870;DHT22;10097;50.862;4.696;2022-10-16T11:53:46;20.80;99.90
19870;DHT22;10097;50.862;4.696;2022-10-16T11:56:18;20.80;99.90
19870;DHT22;10097;50.862;4.696;2022-10-16T11:59:02;20.90;99.90
19870;DHT22;10097;50.862;4.696;2022-10-16T12:04:22;20.80;99.90
19870;DHT22;10097;50.862;4.696;2022-10-16T12:07:02;20.70;99.90
19870;DHT22;10097;50.862;4.696;2022-10-16T12:09:34;20.80;99.90
19870;DHT22;10097;50.862;4.696;2022-10-16T12:12:01;21.00;99.90
19870;DHT22;10097;50.862;4.696;2022-10-16T12:14:34;21.30;99.90
19870;DHT22;10097;50.862;4.696;2022-10-16T12:19:59;21.80;99.90
19870;DHT22;10097;50.862;4.696;2022-10-16T12:22:27;22.00;99.90
19870;DHT22;10097;50.862;4.696;2022-10-16T12:24:54;22.30;99.90
19870;DHT22;10097;50.862;4.696;2022-10-16T12:27:32;22.50;99.90
19870;DHT22;10097;50.862;4.696;2022-10-16T12:30:01;22.60;99.90
19870;DHT22;10097;50.862;4.696;2022-10-16T12:32:38;22.80;99.90
19870;DHT22;10097;50.862;4.696;2022-10-16T12:35:06;22.90;99.90
19870;DHT22;10097;50.862;4.696;2022-10-16T12:37:45;23.00;99.90
19870;DHT22;10097;50.862;4.696;2022-10-16T12:40:14;23.10;99.90
19870;DHT22;10097;50.862;4.696;2022-10-16T12:42:40;23.20;99.90
19870;DHT22;10097;50.862;4.696;2022-10-16T12:47:52;23.30;99.90
19870;DHT22;10097;50.862;4.696;2022-10-16T12:50:25;23.00;99.90
19870;DHT22;10097;50.862;4.696;2022-10-16T12:52:51;22.90;99.90
19870;DHT22;10097;50.862;4.696;2022-10-16T12:55:19;23.00;99.90
19870;DHT22;10097;50.862;4.696;2022-10-16T13:00:59;23.00;99.90
19870;DHT22;10097;50.862;4.696;2022-10-16T13:06:47;22.80;99.90
19870;DHT22;10097;50.862;4.696;2022-10-16T13:12:15;22.80;99.90
19870;DHT22;10097;50.862;4.696;2022-10-16T13:23:18;22.80;99.90
19870;DHT22;10097;50.862;4.696;2022-10-16T13:28:40;23.10;99.90
19870;DHT22;10097;50.862;4.696;2022-10-16T13:31:13;23.30;99.90
19870;DHT22;10097;50.862;4.696;2022-10-16T13:33:42;23.40;99.90
19870;DHT22;10097;50.862;4.696;2022-10-16T13:36:35;23.30;99.90
19870;DHT22;10097;50.862;4.696;2022-10-16T13:44:53;23.00;99.90
19870;DHT22;10097;50.862;4.696;2022-10-16T13:47:20;23.20;99.90
19870;DHT22;10097;50.862;4.696;2022-10-16T13:49:48;23.70;99.90
19870;DHT22;10097;50.862;4.696;2022-10-16T13:52:23;24.10;99.90
19870;DHT22;10097;50.862;4.696;2022-10-16T13:54:49;23.90;99.90
19870;DHT22;10097;50.862;4.696;2022-10-16T13:57:16;23.70;99.90
19870;DHT22;10097;50.862;4.696;2022-10-16T13:59:42;23.30;99.90
19870;DHT22;10097;50.862;4.696;2022-10-16T14:02:36;23.10;99.90
19870;DHT22;10097;50.862;4.696;2022-10-16T14:05:04;22.90;99.90
19870;DHT22;10097;50.862;4.696;2022-10-16T14:07:34;23.00;99.90
19870;DHT22;10097;50.862;4.696;2022-10-16T14:10:04;22.80;99.90
19870;DHT22;10097;50.862;4.696;2022-10-16T14:12:31;22.80;99.90
19870;DHT22;10097;50.862;4.696;2022-10-16T14:14:58;22.80;99.90
19870;DHT22;10097;50.862;4.696;2022-10-16T14:17:27;22.70;99.90
19870;DHT22;10097;50.862;4.696;2022-10-16T14:19:57;22.70;99.90
19870;DHT22;10097;50.862;4.696;2022-10-16T14:22:38;22.50;99.90
19870;DHT22;10097;50.862;4.696;2022-10-16T14:28:18;22.40;99.90
19870;DHT22;10097;50.862;4.696;2022-10-16T14:30:56;22.40;99.90
19870;DHT22;10097;50.862;4.696;2022-10-16T14:33:32;22.40;99.90
19870;DHT22;10097;50.862;4.696;2022-10-16T14:38:37;22.50;99.90
19870;DHT22;10097;50.862;4.696;2022-10-16T14:41:04;22.40;99.90
19870;DHT22;10097;50.862;4.696;2022-10-16T14:43:41;22.50;99.90
19870;DHT22;10097;50.862;4.696;2022-10-16T14:46:15;22.50;99.90
19870;DHT22;10097;50.862;4.696;2022-10-16T14:48:43;22.60;99.90
19870;DHT22;10097;50.862;4.696;2022-10-16T14:51:20;22.70;99.90
19870;DHT22;10097;50.862;4.696;2022-10-16T14:53:46;22.60;99.90
19870;DHT22;10097;50.862;4.696;2022-10-16T14:56:22;22.80;99.90
19870;DHT22;10097;50.862;4.696;2022-10-16T14:58:50;22.70;99.90
19870;DHT22;10097;50.862;4.696;2022-10-16T15:01:16;22.70;99.90
19870;DHT22;10097;50.862;4.696;2022-10-16T15:03:41;22.60;99.90
19870;DHT22;10097;50.862;4.696;2022-10-16T15:06:16;22.60;99.90
19870;DHT22;10097;50.862;4.696;2022-10-16T15:08:42;22.40;99.90
19870;DHT22;10097;50.862;4.696;2022-10-16T15:11:18;22.30;99.90
19870;DHT22;10097;50.862;4.696;2022-10-16T15:13:45;22.10;99.90
19870;DHT22;10097;50.862;4.696;2022-10-16T15:16:13;22.10;99.90
19870;DHT22;10097;50.862;4.696;2022-10-16T15:18:39;21.90;99.90
19870;DHT22;10097;50.862;4.696;2022-10-16T15:21:05;21.90;99.90
19870;DHT22;10097;50.862;4.696;2022-10-16T15:23:31;21.90;99.90
19870;DHT22;10097;50.862;4.696;2022-10-16T15:25:57;21.80;99.90
19870;DHT22;10097;50.862;4.696;2022-10-16T15:28:24;21.90;99.90
19870;DHT22;10097;50.862;4.696;2022-10-16T15:30:53;21.80;99.90
19870;DHT22;10097;50.862;4.696;2022-10-16T15:33:21;21.80;99.90
19870;DHT22;10097;50.862;4.696;2022-10-16T15:35:50;21.70;99.90
19870;DHT22;10097;50.862;4.696;2022-10-16T15:38:19;21.60;99.90
19870;DHT22;10097;50.862;4.696;2022-10-16T15:40:47;21.50;99.90
19870;DHT22;10097;50.862;4.696;2022-10-16T15:43:13;21.40;99.90
19870;DHT22;10097;50.862;4.696;2022-10-16T15:45:38;21.10;99.90
19870;DHT22;10097;50.862;4.696;2022-10-16T15:48:04;21.00;99.90
19870;DHT22;10097;50.862;4.696;2022-10-16T15:50:31;21.00;99.90
19870;DHT22;10097;50.862;4.696;2022-10-16T15:52:57;20.90;99.90
19870;DHT22;10097;50.862;4.696;2022-10-16T15:55:22;20.80;99.90
19870;DHT22;10097;50.862;4.696;2022-10-16T15:57:48;20.70;99.90
19870;DHT22;10097;50.862;4.696;2022-10-16T16:00:17;20.60;99.90
19870;DHT22;10097;50.862;4.696;2022-10-16T16:02:44;20.50;99.90
19870;DHT22;10097;50.862;4.696;2022-10-16T16:05:14;20.40;99.90
19870;DHT22;10097;50.862;4.696;2022-10-16T16:07:40;20.40;99.90
19870;DHT22;10097;50.862;4.696;2022-10-16T16:10:08;20.30;99.90
19870;DHT22;10097;50.862;4.696;2022-10-16T16:12:34;20.20;99.90
19870;DHT22;10097;50.862;4.696;2022-10-16T16:15:00;20.20;99.90
19870;DHT22;10097;50.862;4.696;2022-10-16T16:17:26;20.10;99.90
19870;DHT22;10097;50.862;4.696;2022-10-16T16:19:52;20.00;99.90
19870;DHT22;10097;50.862;4.696;2022-10-16T16:22:17;20.00;99.90
19870;DHT22;10097;50.862;4.696;2022-10-16T16:24:43;19.90;99.90
19870;DHT22;10097;50.862;4.696;2022-10-16T16:27:09;19.80;99.90
19870;DHT22;10097;50.862;4.696;2022-10-16T16:29:37;19.70;99.90
19870;DHT22;10097;50.862;4.696;2022-10-16T16:32:03;19.60;99.90
19870;DHT22;10097;50.862;4.696;2022-10-16T16:34:29;19.60;99.90
19870;DHT22;10097;50.862;4.696;2022-10-16T16:36:56;19.50;99.90
19870;DHT22;10097;50.862;4.696;2022-10-16T16:39:22;19.50;99.90
19870;DHT22;10097;50.862;4.696;2022-10-16T16:41:51;19.40;99.90
19870;DHT22;10097;50.862;4.696;2022-10-16T16:44:17;19.30;99.90
19870;DHT22;10097;50.862;4.696;2022-10-16T16:46:44;19.20;99.90
19870;DHT22;10097;50.862;4.696;2022-10-16T16:49:12;19.10;99.90
19870;DHT22;10097;50.862;4.696;2022-10-16T16:51:40;19.10;99.90
19870;DHT22;10097;50.862;4.696;2022-10-16T16:54:07;19.10;99.90
19870;DHT22;10097;50.862;4.696;2022-10-16T16:56:34;19.00;99.90
19870;DHT22;10097;50.862;4.696;2022-10-16T16:59:00;18.90;99.90
19870;DHT22;10097;50.862;4.696;2022-10-16T17:01:29;18.90;99.90
19870;DHT22;10097;50.862;4.696;2022-10-16T17:04:05;18.80;99.90
19870;DHT22;10097;50.862;4.696;2022-10-16T17:06:31;18.80;99.90
19870;DHT22;10097;50.862;4.696;2022-10-16T17:08:58;18.70;99.90
19870;DHT22;10097;50.862;4.696;2022-10-16T17:11:25;18.60;99.90
19870;DHT22;10097;50.862;4.696;2022-10-16T17:13:53;18.60;99.90
19870;DHT22;10097;50.862;4.696;2022-10-16T17:16:20;18.60;99.90
19870;DHT22;10097;50.862;4.696;2022-10-16T17:18:46;18.60;99.90
19870;DHT22;10097;50.862;4.696;2022-10-16T17:21:12;18.50;99.90
19870;DHT22;10097;50.862;4.696;2022-10-16T17:23:38;18.20;99.90
19870;DHT22;10097;50.862;4.696;2022-10-16T17:26:12;18.00;99.90
19870;DHT22;10097;50.862;4.696;2022-10-16T17:28:39;18.00;99.90
19870;DHT22;10097;50.862;4.696;2022-10-16T17:31:11;17.90;99.90
19870;DHT22;10097;50.862;4.696;2022-10-16T17:33:38;17.80;99.90
19870;DHT22;10097;50.862;4.696;2022-10-16T17:36:04;17.80;99.90
19870;DHT22;10097;50.862;4.696;2022-10-16T17:38:30;17.70;99.90
19870;DHT22;10097;50.862;4.696;2022-10-16T17:40:55;17.70;99.90